Time;durP1;ratioP1;P1;durP2;ratioP2;P2;SDS_P1;SDS_P2;PMS_P1;PMS_P2;Temp;Humidity;BMP_temperature;BMP_pressure;BME280_temperature;BME280_humidity;BME280_pressure;Samples;Min_cycle;Max_cycle;Signal;HPM_P1;HPM_P2
2021/04/28 00:00:06;;;;;;;17.17;8.02;;;;;;;;;;5076507;28;20020;-83
2021/04/28 00:02:33;;;;;;;15.18;7.70;;;;;;;;;;5076889;28;20032;-85
2021/04/28 00:04:59;;;;;;;16.67;8.00;;;;;;;;;;5075751;28;20075;-83
2021/04/28 00:07:26;;;;;;;17.48;8.05;;;;;;;;;;5077209;28;20021;-83
2021/04/28 00:09:53;;;;;;;17.27;7.72;;;;;;;;;;5077263;28;20425;-83
2021/04/28 00:12:19;;;;;;;16.35;7.80;;;;;;;;;;5077278;28;20104;-81
2021/04/28 00:14:46;;;;;;;13.65;7.05;;;;;;;;;;5076785;28;20456;-84
2021/04/28 00:17:13;;;;;;;16.13;7.82;;;;;;;;;;5076470;28;20025;-82
2021/04/28 00:19:39;;;;;;;18.38;8.95;;;;;;;;;;5075319;28;20070;-82
2021/04/28 00:22:06;;;;;;;20.33;8.45;;;;;;;;;;5075248;28;20358;-84
2021/04/28 00:24:32;;;;;;;17.95;7.45;;;;;;;;;;5075016;28;20028;-86
2021/04/28 00:26:58;;;;;;;21.17;8.27;;;;;;;;;;5076166;28;20023;-83
2021/04/28 00:29:25;;;;;;;19.38;8.88;;;;;;;;;;5075227;28;20032;-82
2021/04/28 00:31:51;;;;;;;14.88;7.88;;;;;;;;;;5074786;28;20086;-84
2021/04/28 00:34:17;;;;;;;17.85;8.70;;;;;;;;;;5074620;28;20035;-82
2021/04/28 00:36:43;;;;;;;20.48;8.25;;;;;;;;;;5074661;28;20484;-83
2021/04/28 00:39:10;;;;;;;16.90;8.27;;;;;;;;;;5074652;28;20145;-82
2021/04/28 00:41:36;;;;;;;17.63;8.07;;;;;;;;;;5076611;28;20093;-82
2021/04/28 00:44:03;;;;;;;18.73;9.23;;;;;;;;;;5079307;28;20025;-83
2021/04/28 00:46:29;;;;;;;20.02;9.43;;;;;;;;;;5090086;28;20032;-82
2021/04/28 00:48:55;;;;;;;28.70;9.93;;;;;;;;;;5077663;28;20037;-83
2021/04/28 00:51:22;;;;;;;17.80;8.13;;;;;;;;;;5075880;28;20024;-84
2021/04/28 00:53:49;;;;;;;18.17;8.38;;;;;;;;;;5075550;28;20034;-83
2021/04/28 00:56:15;;;;;;;14.93;7.93;;;;;;;;;;5075661;28;20458;-82
2021/04/28 00:58:42;;;;;;;17.15;8.10;;;;;;;;;;5074310;28;20025;-84
2021/04/28 01:01:08;;;;;;;19.15;8.55;;;;;;;;;;5074171;28;20029;-83
2021/04/28 01:03:35;;;;;;;17.70;7.80;;;;;;;;;;5074141;28;20035;-83
2021/04/28 01:06:03;;;;;;;17.85;9.02;;;;;;;;;;5075421;28;20036;-82
2021/04/28 01:08:29;;;;;;;17.30;8.25;;;;;;;;;;5074066;28;20025;-82
2021/04/28 01:10:56;;;;;;;21.38;9.13;;;;;;;;;;5073980;28;20033;-82
2021/04/28 01:13:22;;;;;;;18.58;9.25;;;;;;;;;;5076113;28;20028;-81
2021/04/28 01:15:49;;;;;;;22.67;9.00;;;;;;;;;;5075080;28;20544;-83
2021/04/28 01:18:16;;;;;;;18.83;9.38;;;;;;;;;;5075112;28;20035;-82
2021/04/28 01:20:43;;;;;;;18.40;9.50;;;;;;;;;;5073717;28;20028;-83
2021/04/28 01:23:10;;;;;;;19.02;9.88;;;;;;;;;;5075369;28;20059;-83
2021/04/28 01:25:37;;;;;;;23.08;9.88;;;;;;;;;;5075018;28;20020;-83
2021/04/28 01:28:07;;;;;;;18.85;8.38;;;;;;;;;;5073632;28;20059;-83
2021/04/28 01:30:54;;;;;;;18.77;10.18;;;;;;;;;;5074931;28;20028;-83
2021/04/28 01:33:29;;;;;;;21.83;9.73;;;;;;;;;;5066407;28;20503;-84
2021/04/28 01:35:56;;;;;;;19.08;9.18;;;;;;;;;;5073496;28;20037;-83
2021/04/28 01:38:24;;;;;;;16.15;9.77;;;;;;;;;;5074865;28;20024;-83
2021/04/28 01:40:51;;;;;;;19.58;9.50;;;;;;;;;;5073413;28;20024;-84
2021/04/28 01:43:18;;;;;;;18.52;9.52;;;;;;;;;;5073220;28;20560;-81
2021/04/28 01:45:47;;;;;;;16.75;9.40;;;;;;;;;;5073518;28;20035;-83
2021/04/28 01:48:13;;;;;;;20.77;9.93;;;;;;;;;;5073162;28;20492;-83
2021/04/28 01:50:40;;;;;;;22.50;9.43;;;;;;;;;;5073166;28;20032;-82
2021/04/28 01:53:06;;;;;;;22.10;10.77;;;;;;;;;;5073487;28;20028;-82
2021/04/28 01:55:33;;;;;;;21.75;10.13;;;;;;;;;;5071859;28;20084;-82
2021/04/28 01:58:02;;;;;;;20.80;9.98;;;;;;;;;;5074492;28;20043;-83
2021/04/28 02:00:28;;;;;;;17.48;9.25;;;;;;;;;;5074332;28;20025;-83
2021/04/28 02:02:55;;;;;;;22.75;9.40;;;;;;;;;;5072950;28;20518;-83
2021/04/28 02:05:22;;;;;;;25.23;10.43;;;;;;;;;;5072917;28;20046;-81
2021/04/28 02:07:48;;;;;;;24.85;10.25;;;;;;;;;;5072783;28;20024;-83
2021/04/28 02:10:15;;;;;;;28.58;10.40;;;;;;;;;;5074043;28;20024;-83
2021/04/28 02:12:42;;;;;;;19.58;9.40;;;;;;;;;;5073762;28;20035;-84
2021/04/28 02:15:10;;;;;;;17.92;9.07;;;;;;;;;;5072701;28;20055;-83
2021/04/28 02:17:37;;;;;;;13.85;7.70;;;;;;;;;;5072686;28;20024;-82
2021/04/28 02:20:05;;;;;;;15.07;7.80;;;;;;;;;;5074673;28;20053;-84
2021/04/28 02:22:33;;;;;;;18.70;8.35;;;;;;;;;;5073036;28;20098;-84
2021/04/28 02:24:59;;;;;;;15.68;8.02;;;;;;;;;;5074354;28;20079;-83
2021/04/28 02:27:25;;;;;;;16.30;6.07;;;;;;;;;;5073887;28;20017;-83
2021/04/28 02:29:52;;;;;;;14.80;7.10;;;;;;;;;;5072472;28;20033;-82
2021/04/28 02:32:18;;;;;;;14.13;6.32;;;;;;;;;;5074719;28;20028;-81
2021/04/28 02:34:44;;;;;;;10.75;5.90;;;;;;;;;;5073783;28;20099;-84
2021/04/28 02:37:11;;;;;;;14.35;5.63;;;;;;;;;;5072423;28;20043;-83
2021/04/28 02:39:42;;;;;;;10.00;5.20;;;;;;;;;;5072626;28;20111;-82
2021/04/28 02:42:09;;;;;;;14.00;5.50;;;;;;;;;;5073527;28;20449;-82
2021/04/28 02:44:37;;;;;;;18.05;5.32;;;;;;;;;;5073445;28;20051;-83
2021/04/28 02:47:04;;;;;;;10.25;5.03;;;;;;;;;;5072527;28;20033;-84
2021/04/28 02:49:31;;;;;;;13.55;5.63;;;;;;;;;;5072263;28;20031;-83
2021/04/28 02:51:58;;;;;;;8.45;4.88;;;;;;;;;;5072185;28;20082;-83
2021/04/28 02:54:24;;;;;;;12.32;5.88;;;;;;;;;;5072182;28;20546;-84
2021/04/28 02:56:52;;;;;;;11.07;5.35;;;;;;;;;;5073218;28;20412;-83
2021/04/28 02:59:19;;;;;;;12.55;4.95;;;;;;;;;;5073494;28;20024;-81
2021/04/28 03:01:46;;;;;;;9.48;4.95;;;;;;;;;;5072066;28;20029;-82
2021/04/28 03:04:12;;;;;;;10.88;4.60;;;;;;;;;;5072183;28;20543;-83
2021/04/28 03:06:38;;;;;;;13.93;4.78;;;;;;;;;;5071737;28;20032;-82
2021/04/28 03:09:05;;;;;;;9.77;4.75;;;;;;;;;;5073369;28;20032;-83
2021/04/28 03:11:32;;;;;;;9.13;4.50;;;;;;;;;;5073835;28;20031;-82
2021/04/28 03:13:58;;;;;;;13.60;5.00;;;;;;;;;;5072027;28;20024;-81
2021/04/28 03:16:24;;;;;;;10.75;4.60;;;;;;;;;;5072289;28;20040;-81
2021/04/28 03:18:51;;;;;;;10.27;4.65;;;;;;;;;;5072144;28;20029;-82
2021/04/28 03:21:18;;;;;;;9.77;4.43;;;;;;;;;;5071869;28;20116;-85
2021/04/28 03:23:45;;;;;;;14.88;4.75;;;;;;;;;;5073478;28;20025;-85
2021/04/28 03:26:12;;;;;;;13.80;4.60;;;;;;;;;;5072189;28;20415;-83
2021/04/28 03:28:38;;;;;;;10.35;4.60;;;;;;;;;;5073167;28;20028;-82
2021/04/28 03:31:05;;;;;;;10.57;4.47;;;;;;;;;;5073361;28;20028;-84
2021/04/28 03:33:31;;;;;;;13.68;5.60;;;;;;;;;;5073207;28;20056;-82
2021/04/28 03:35:58;;;;;;;7.80;4.35;;;;;;;;;;5071880;28;20392;-82
2021/04/28 03:38:24;;;;;;;11.82;4.53;;;;;;;;;;5071737;28;20385;-84
2021/04/28 03:40:50;;;;;;;10.32;4.53;;;;;;;;;;5073072;28;20020;-84
2021/04/28 03:43:16;;;;;;;9.95;4.45;;;;;;;;;;5072921;28;20025;-82
2021/04/28 03:45:43;;;;;;;7.95;3.70;;;;;;;;;;5072905;28;20064;-82
2021/04/28 03:48:09;;;;;;;12.35;4.00;;;;;;;;;;5071959;28;20465;-79
2021/04/28 03:50:35;;;;;;;11.95;4.03;;;;;;;;;;5071701;28;20191;-82
2021/04/28 03:53:02;;;;;;;7.80;4.15;;;;;;;;;;5072925;28;20024;-82
2021/04/28 03:55:28;;;;;;;10.13;4.00;;;;;;;;;;5071202;28;20048;-82
2021/04/28 03:57:54;;;;;;;9.40;4.40;;;;;;;;;;5072852;28;20481;-85
2021/04/28 04:00:21;;;;;;;8.65;4.15;;;;;;;;;;5071623;28;20031;-82
2021/04/28 04:02:47;;;;;;;8.15;3.90;;;;;;;;;;5072900;28;20036;-82
2021/04/28 04:05:14;;;;;;;12.48;4.50;;;;;;;;;;5071534;28;20024;-82
2021/04/28 04:07:40;;;;;;;8.27;4.45;;;;;;;;;;5072798;28;20491;-82
2021/04/28 04:10:07;;;;;;;8.52;3.75;;;;;;;;;;5073473;28;20052;-82
2021/04/28 04:12:33;;;;;;;7.68;3.15;;;;;;;;;;5073769;28;20025;-83
2021/04/28 04:14:59;;;;;;;7.05;3.22;;;;;;;;;;5071686;28;20032;-82
2021/04/28 04:17:26;;;;;;;8.02;3.05;;;;;;;;;;5071843;28;20032;-83
2021/04/28 04:19:52;;;;;;;6.65;3.10;;;;;;;;;;5073368;28;20021;-82
2021/04/28 04:22:19;;;;;;;5.82;2.90;;;;;;;;;;5076145;28;20056;-80
2021/04/28 04:24:45;;;;;;;6.50;2.72;;;;;;;;;;5075289;28;20043;-82
2021/04/28 04:27:11;;;;;;;7.85;3.42;;;;;;;;;;5075064;28;20040;-82
2021/04/28 04:29:37;;;;;;;6.22;3.22;;;;;;;;;;5074721;28;20056;-81
2021/04/28 04:32:04;;;;;;;11.40;3.13;;;;;;;;;;5074701;28;20118;-85
2021/04/28 04:34:30;;;;;;;4.78;2.47;;;;;;;;;;5075907;28;20073;-81
2021/04/28 04:36:56;;;;;;;7.68;3.45;;;;;;;;;;5074517;28;20037;-82
2021/04/28 04:39:23;;;;;;;5.78;3.17;;;;;;;;;;5075885;28;20527;-82
2021/04/28 04:41:49;;;;;;;12.00;3.60;;;;;;;;;;5074767;28;20029;-79
2021/04/28 04:44:15;;;;;;;8.70;3.45;;;;;;;;;;5074493;28;20400;-81
2021/04/28 04:46:41;;;;;;;7.80;3.20;;;;;;;;;;5083329;28;20016;-85
2021/04/28 04:49:08;;;;;;;6.85;3.33;;;;;;;;;;5087486;28;20368;-82
2021/04/28 04:51:34;;;;;;;6.88;3.03;;;;;;;;;;5076364;28;20038;-82
2021/04/28 04:54:00;;;;;;;6.45;3.25;;;;;;;;;;5074302;28;20393;-82
2021/04/28 04:56:27;;;;;;;5.82;3.25;;;;;;;;;;5073945;28;20462;-83
2021/04/28 04:58:53;;;;;;;7.75;3.55;;;;;;;;;;5075891;28;20039;-79
2021/04/28 05:01:19;;;;;;;7.70;4.10;;;;;;;;;;5074239;28;20128;-80
2021/04/28 05:03:45;;;;;;;10.43;3.20;;;;;;;;;;5074119;28;20058;-82
2021/04/28 05:06:11;;;;;;;8.15;3.42;;;;;;;;;;5074044;28;20025;-81
2021/04/28 05:08:38;;;;;;;5.32;3.08;;;;;;;;;;5073918;28;20032;-82
2021/04/28 05:11:04;;;;;;;8.75;3.58;;;;;;;;;;5071650;28;20496;-80
2021/04/28 05:13:30;;;;;;;13.20;3.40;;;;;;;;;;5073147;28;20424;-82
2021/04/28 05:15:56;;;;;;;6.90;3.25;;;;;;;;;;5074967;28;20098;-81
2021/04/28 05:18:22;;;;;;;6.60;2.92;;;;;;;;;;5075482;28;20075;-81
2021/04/28 05:20:48;;;;;;;6.38;3.17;;;;;;;;;;5074543;28;20064;-81
2021/04/28 05:23:14;;;;;;;7.57;3.40;;;;;;;;;;5073115;28;20055;-80
2021/04/28 05:25:40;;;;;;;6.03;3.15;;;;;;;;;;5073832;28;20111;-84
2021/04/28 05:28:06;;;;;;;6.63;3.53;;;;;;;;;;5073513;28;20495;-81
2021/04/28 05:30:33;;;;;;;6.95;3.25;;;;;;;;;;5073735;28;20075;-84
2021/04/28 05:32:59;;;;;;;8.45;3.15;;;;;;;;;;5075043;28;20032;-84
2021/04/28 05:35:25;;;;;;;9.75;3.55;;;;;;;;;;5074695;28;20379;-80
2021/04/28 05:37:51;;;;;;;7.22;3.35;;;;;;;;;;5074452;28;20025;-81
2021/04/28 05:40:18;;;;;;;6.43;3.65;;;;;;;;;;5073166;28;20039;-84
2021/04/28 05:42:44;;;;;;;7.90;3.47;;;;;;;;;;5074638;28;20165;-81
2021/04/28 05:45:11;;;;;;;5.72;3.17;;;;;;;;;;5073454;28;20082;-82
2021/04/28 05:47:38;;;;;;;5.45;3.35;;;;;;;;;;5073319;28;20062;-82
2021/04/28 05:50:08;;;;;;;6.60;3.35;;;;;;;;;;5074571;28;20028;-84
2021/04/28 05:52:34;;;;;;;5.90;3.00;;;;;;;;;;5073356;28;20028;-84
2021/04/28 05:55:00;;;;;;;6.00;2.97;;;;;;;;;;5072832;28;20093;-83
2021/04/28 05:57:27;;;;;;;9.68;2.80;;;;;;;;;;5074715;28;20079;-81
2021/04/28 05:59:53;;;;;;;5.15;2.67;;;;;;;;;;5073022;28;20052;-82
2021/04/28 06:02:19;;;;;;;6.28;3.00;;;;;;;;;;5073229;28;20107;-83
2021/04/28 06:04:45;;;;;;;5.63;2.50;;;;;;;;;;5073674;28;20468;-80
2021/04/28 06:07:11;;;;;;;6.90;2.83;;;;;;;;;;5072596;28;20027;-80
2021/04/28 06:09:37;;;;;;;5.55;2.33;;;;;;;;;;5072569;28;20050;-80
2021/04/28 06:12:04;;;;;;;5.05;2.47;;;;;;;;;;5072996;28;20032;-84
2021/04/28 06:14:30;;;;;;;5.93;2.45;;;;;;;;;;5072677;28;20021;-83
2021/04/28 06:16:58;;;;;;;4.60;1.67;;;;;;;;;;5072591;28;20040;-82
2021/04/28 06:19:24;;;;;;;6.10;2.60;;;;;;;;;;5074128;28;20052;-83
2021/04/28 06:21:50;;;;;;;4.05;1.92;;;;;;;;;;5072476;28;20029;-79
2021/04/28 06:24:17;;;;;;;3.70;1.75;;;;;;;;;;5073837;28;20111;-83
2021/04/28 06:26:44;;;;;;;4.53;2.15;;;;;;;;;;5072561;28;20021;-83
2021/04/28 06:29:10;;;;;;;3.30;1.88;;;;;;;;;;5072760;28;20115;-84
2021/04/28 06:31:36;;;;;;;4.63;1.90;;;;;;;;;;5072391;28;20036;-83
2021/04/28 06:34:03;;;;;;;5.03;2.40;;;;;;;;;;5072334;28;20149;-82
2021/04/28 06:36:29;;;;;;;8.45;2.72;;;;;;;;;;5073481;28;20039;-83
2021/04/28 06:38:55;;;;;;;6.75;2.38;;;;;;;;;;5072234;28;20024;-79
2021/04/28 06:41:21;;;;;;;5.80;2.58;;;;;;;;;;5071697;28;20484;-82
2021/04/28 06:43:47;;;;;;;5.53;2.67;;;;;;;;;;5071715;28;20515;-81
2021/04/28 06:46:13;;;;;;;4.13;2.00;;;;;;;;;;5072274;28;20035;-81
2021/04/28 06:48:39;;;;;;;3.97;2.00;;;;;;;;;;5072289;28;20446;-81
2021/04/28 06:51:06;;;;;;;6.03;2.63;;;;;;;;;;5072096;28;20024;-82
2021/04/28 06:53:32;;;;;;;6.85;2.50;;;;;;;;;;5072041;28;20047;-83
2021/04/28 06:55:58;;;;;;;5.32;2.53;;;;;;;;;;5072261;28;20497;-82
2021/04/28 06:58:24;;;;;;;4.18;2.05;;;;;;;;;;5072454;28;20373;-81
2021/04/28 07:00:50;;;;;;;6.25;2.30;;;;;;;;;;5072019;28;20366;-82
2021/04/28 07:03:18;;;;;;;7.38;2.63;;;;;;;;;;5072099;28;20452;-80
2021/04/28 07:05:44;;;;;;;6.97;2.50;;;;;;;;;;5071969;28;20028;-81
2021/04/28 07:08:10;;;;;;;6.93;2.10;;;;;;;;;;5075061;28;20107;-80
2021/04/28 07:10:37;;;;;;;5.93;2.42;;;;;;;;;;5072244;28;20400;-79
2021/04/28 07:13:05;;;;;;;5.25;2.50;;;;;;;;;;5073541;28;20159;-79
2021/04/28 07:15:32;;;;;;;6.72;2.30;;;;;;;;;;5071890;28;20055;-79
2021/04/28 07:17:58;;;;;;;4.68;2.80;;;;;;;;;;5073063;28;20027;-81
2021/04/28 07:20:25;;;;;;;4.38;2.58;;;;;;;;;;5071898;28;20545;-80
2021/04/28 07:22:51;;;;;;;5.05;2.40;;;;;;;;;;5072149;28;20039;-80
2021/04/28 07:25:18;;;;;;;5.93;2.70;;;;;;;;;;5071804;28;20024;-80
2021/04/28 07:27:44;;;;;;;5.03;2.38;;;;;;;;;;5071985;28;20024;-83
2021/04/28 07:30:11;;;;;;;4.93;2.38;;;;;;;;;;5073152;28;20031;-82
2021/04/28 07:32:38;;;;;;;4.35;2.13;;;;;;;;;;5072649;28;20031;-80
2021/04/28 07:35:05;;;;;;;5.28;2.45;;;;;;;;;;5072225;28;20111;-81
2021/04/28 07:37:31;;;;;;;7.60;2.30;;;;;;;;;;5071986;28;20048;-80
2021/04/28 07:39:57;;;;;;;4.75;2.42;;;;;;;;;;5071581;28;20025;-81
2021/04/28 07:42:27;;;;;;;4.60;2.15;;;;;;;;;;5072108;28;20021;-80
2021/04/28 07:44:53;;;;;;;6.68;2.58;;;;;;;;;;5072244;28;20407;-80
2021/04/28 07:47:19;;;;;;;7.80;2.55;;;;;;;;;;5071824;28;20024;-80
2021/04/28 07:49:45;;;;;;;4.40;1.92;;;;;;;;;;5071488;28;20077;-81
2021/04/28 07:52:11;;;;;;;3.45;2.08;;;;;;;;;;5071543;28;20416;-81
2021/04/28 07:54:37;;;;;;;5.72;2.47;;;;;;;;;;5073389;28;20437;-80
2021/04/28 07:57:04;;;;;;;4.90;2.20;;;;;;;;;;5075162;28;20366;-81
2021/04/28 07:59:30;;;;;;;3.92;2.40;;;;;;;;;;5075498;28;20372;-82
2021/04/28 08:01:57;;;;;;;3.13;1.83;;;;;;;;;;5074986;28;20025;-81
2021/04/28 08:04:23;;;;;;;7.40;2.15;;;;;;;;;;5075031;28;20079;-80
2021/04/28 08:06:49;;;;;;;3.22;1.98;;;;;;;;;;5076435;28;20074;-82
2021/04/28 08:09:16;;;;;;;7.97;2.40;;;;;;;;;;5076378;28;20103;-82
2021/04/28 08:11:42;;;;;;;3.97;2.17;;;;;;;;;;5074983;28;20028;-81
2021/04/28 08:14:08;;;;;;;3.72;2.35;;;;;;;;;;5075256;28;20046;-82
2021/04/28 08:16:35;;;;;;;4.95;2.20;;;;;;;;;;5074910;28;20074;-80
2021/04/28 08:19:01;;;;;;;3.30;2.10;;;;;;;;;;5075534;28;20029;-81
2021/04/28 08:21:27;;;;;;;5.38;2.20;;;;;;;;;;5074918;28;20496;-82
2021/04/28 08:23:53;;;;;;;4.95;2.20;;;;;;;;;;5074701;28;20119;-82
2021/04/28 08:26:20;;;;;;;4.03;2.08;;;;;;;;;;5074816;28;20107;-84
2021/04/28 08:28:47;;;;;;;4.90;2.50;;;;;;;;;;5076194;28;20033;-81
2021/04/28 08:31:14;;;;;;;5.45;2.35;;;;;;;;;;5074999;28;20029;-81
2021/04/28 08:33:41;;;;;;;9.40;2.80;;;;;;;;;;5074613;28;20024;-81
2021/04/28 08:36:08;;;;;;;5.10;2.42;;;;;;;;;;5076081;28;20028;-82
2021/04/28 08:38:34;;;;;;;7.68;2.53;;;;;;;;;;5074552;28;20477;-81
2021/04/28 08:41:01;;;;;;;5.90;2.85;;;;;;;;;;5074494;28;20024;-84
2021/04/28 08:43:27;;;;;;;8.65;3.10;;;;;;;;;;5075865;28;20055;-81
2021/04/28 08:45:54;;;;;;;6.80;3.33;;;;;;;;;;5080710;28;20021;-84
2021/04/28 08:48:21;;;;;;;6.13;2.30;;;;;;;;;;5081929;28;20111;-84
2021/04/28 08:50:48;;;;;;;5.47;2.80;;;;;;;;;;5075450;28;20021;-83
2021/04/28 08:53:15;;;;;;;5.38;2.75;;;;;;;;;;5074930;28;20021;-80
2021/04/28 08:55:42;;;;;;;12.25;3.30;;;;;;;;;;5075692;28;20086;-83
2021/04/28 08:58:08;;;;;;;5.68;2.60;;;;;;;;;;5074319;28;20089;-79
2021/04/28 09:00:35;;;;;;;10.38;3.45;;;;;;;;;;5074492;28;20465;-83
2021/04/28 09:03:01;;;;;;;5.03;2.80;;;;;;;;;;5074356;28;20032;-84
2021/04/28 09:05:31;;;;;;;7.35;2.92;;;;;;;;;;5074219;28;20020;-84
2021/04/28 09:07:58;;;;;;;8.23;3.50;;;;;;;;;;5074219;28;20029;-84
2021/04/28 09:10:28;;;;;;;6.88;2.90;;;;;;;;;;5074235;28;20488;-81
2021/04/28 09:12:54;;;;;;;7.25;3.47;;;;;;;;;;5074640;28;20040;-85
2021/04/28 09:15:41;;;;;;;5.68;3.08;;;;;;;;;;5074105;28;20032;-80
2021/04/28 09:18:08;;;;;;;6.53;3.45;;;;;;;;;;5074796;28;20036;-82
2021/04/28 09:20:37;;;;;;;6.13;3.30;;;;;;;;;;5073708;28;20029;-81
2021/04/28 09:23:04;;;;;;;6.70;3.15;;;;;;;;;;5073689;28;20036;-80
2021/04/28 09:25:57;;;;;;;5.93;3.20;;;;;;;;;;5073886;28;20029;-82
2021/04/28 09:28:25;;;;;;;6.20;3.45;;;;;;;;;;5070964;28;20025;-84
2021/04/28 09:30:51;;;;;;;7.38;3.53;;;;;;;;;;5073399;28;20036;-84
2021/04/28 09:33:18;;;;;;;8.25;3.90;;;;;;;;;;5073645;28;20025;-84
2021/04/28 09:35:45;;;;;;;6.65;3.63;;;;;;;;;;5073553;28;20074;-86
2021/04/28 09:38:12;;;;;;;7.55;3.80;;;;;;;;;;5074057;28;20124;-85
2021/04/28 09:40:41;;;;;;;8.75;4.05;;;;;;;;;;5073340;28;20077;-84
2021/04/28 09:43:07;;;;;;;10.60;4.68;;;;;;;;;;5073230;28;20082;-86
2021/04/28 09:45:40;;;;;;;8.48;3.67;;;;;;;;;;5073525;28;20170;-84
2021/04/28 09:48:07;;;;;;;10.27;3.90;;;;;;;;;;5073109;28;20081;-84
2021/04/28 09:50:33;;;;;;;10.30;4.00;;;;;;;;;;5073195;28;20055;-84
2021/04/28 09:53:00;;;;;;;8.10;3.85;;;;;;;;;;5072925;28;20031;-85
2021/04/28 09:55:27;;;;;;;7.43;3.70;;;;;;;;;;5073003;28;20074;-84
2021/04/28 09:57:54;;;;;;;6.68;3.55;;;;;;;;;;5072831;28;20025;-85
2021/04/28 10:00:20;;;;;;;8.93;4.32;;;;;;;;;;5073737;28;20052;-87
2021/04/28 10:02:54;;;;;;;7.80;3.97;;;;;;;;;;5074609;28;20451;-84
2021/04/28 10:05:22;;;;;;;6.43;4.20;;;;;;;;;;5072969;28;20032;-83
2021/04/28 10:07:50;;;;;;;7.00;4.22;;;;;;;;;;5073984;28;20028;-85
2021/04/28 10:10:16;;;;;;;6.82;3.75;;;;;;;;;;5073557;28;20393;-85
2021/04/28 10:12:43;;;;;;;8.73;3.92;;;;;;;;;;5072755;28;20021;-86
2021/04/28 10:15:10;;;;;;;8.45;4.65;;;;;;;;;;5072820;28;20036;-86
2021/04/28 10:17:36;;;;;;;9.32;4.57;;;;;;;;;;5072103;28;20439;-84
2021/04/28 10:20:04;;;;;;;6.68;3.80;;;;;;;;;;5072681;28;20428;-82
2021/04/28 10:22:31;;;;;;;8.73;3.83;;;;;;;;;;5073768;28;20482;-83
2021/04/28 10:24:59;;;;;;;10.77;3.92;;;;;;;;;;5072861;28;20071;-84
2021/04/28 10:27:28;;;;;;;7.70;3.72;;;;;;;;;;5074743;28;20031;-82
2021/04/28 10:29:55;;;;;;;6.07;3.70;;;;;;;;;;5078498;28;20115;-84
2021/04/28 10:32:22;;;;;;;9.63;3.55;;;;;;;;;;5073976;28;20025;-86
2021/04/28 10:34:51;;;;;;;8.32;3.83;;;;;;;;;;5072547;28;20032;-85
2021/04/28 10:37:19;;;;;;;8.00;3.88;;;;;;;;;;5072542;28;20036;-84
2021/04/28 10:39:49;;;;;;;8.30;4.00;;;;;;;;;;5072251;28;20021;-87
2021/04/28 10:42:36;;;;;;;9.23;4.10;;;;;;;;;;5072117;28;20440;-85
2021/04/28 10:45:04;;;;;;;7.30;3.55;;;;;;;;;;5073627;28;20129;-85
2021/04/28 10:47:59;;;;;;;9.52;2.80;;;;;;;;;;5072238;28;20080;-86
2021/04/28 10:50:28;;;;;;;13.23;3.40;;;;;;;;;;5059702;28;20028;-86
2021/04/28 10:52:57;;;;;;;12.55;3.85;;;;;;;;;;5072225;28;20029;-84
2021/04/28 10:55:38;;;;;;;9.27;3.25;;;;;;;;;;5071834;28;20127;-82
2021/04/28 10:58:04;;;;;;;11.18;3.25;;;;;;;;;;5073192;28;20029;-84
2021/04/28 11:00:31;;;;;;;6.72;3.38;;;;;;;;;;5072012;28;20032;-83
2021/04/28 11:02:58;;;;;;;7.13;3.83;;;;;;;;;;5071989;28;20033;-83
2021/04/28 11:05:28;;;;;;;9.40;3.42;;;;;;;;;;5072123;28;20024;-81
2021/04/28 11:07:58;;;;;;;10.25;2.53;;;;;;;;;;5072464;28;20029;-83
2021/04/28 11:10:24;;;;;;;7.97;2.67;;;;;;;;;;5072185;28;20017;-80
2021/04/28 11:13:04;;;;;;;7.00;3.25;;;;;;;;;;5073290;28;20025;-82
2021/04/28 11:15:49;;;;;;;6.65;2.60;;;;;;;;;;5071717;28;20078;-82
2021/04/28 11:18:27;;;;;;;5.88;2.60;;;;;;;;;;5077485;28;20037;-89
2021/04/28 11:21:13;;;;;;;5.93;2.80;;;;;;;;;;5073166;28;20017;-90
2021/04/28 11:23:59;;;;;;;6.07;2.83;;;;;;;;;;5072450;28;20036;-89
2021/04/28 11:26:25;;;;;;;10.02;3.50;;;;;;;;;;5072733;28;20082;-88
2021/04/28 11:28:58;;;;;;;5.50;2.60;;;;;;;;;;5074660;28;20032;-88
2021/04/28 11:31:25;;;;;;;10.07;3.42;;;;;;;;;;5076261;28;20067;-88
2021/04/28 11:33:51;;;;;;;6.60;3.30;;;;;;;;;;5076453;28;20030;-88
2021/04/28 11:36:18;;;;;;;6.72;2.70;;;;;;;;;;5077001;28;20063;-88
2021/04/28 11:38:48;;;;;;;11.50;2.88;;;;;;;;;;5076626;28;20020;-88
2021/04/28 11:41:15;;;;;;;6.38;3.53;;;;;;;;;;5076154;28;20378;-88
2021/04/28 11:43:46;;;;;;;5.68;2.70;;;;;;;;;;5075824;28;20055;-82
2021/04/28 11:46:14;;;;;;;5.35;1.98;;;;;;;;;;5075751;28;20066;-82
2021/04/28 11:48:41;;;;;;;4.95;2.25;;;;;;;;;;5075740;28;20158;-85
2021/04/28 11:51:15;;;;;;;6.85;3.15;;;;;;;;;;5079418;28;20024;-86
2021/04/28 11:54:03;;;;;;;6.75;2.80;;;;;;;;;;5083297;28;20032;-84
2021/04/28 11:56:45;;;;;;;8.98;3.35;;;;;;;;;;5077844;28;20055;-87
2021/04/28 11:59:28;;;;;;;7.32;3.22;;;;;;;;;;5085183;28;20134;-82
2021/04/28 12:01:55;;;;;;;6.78;3.30;;;;;;;;;;5075460;28;20502;-85
2021/04/28 12:04:44;;;;;;;5.80;2.70;;;;;;;;;;5084518;28;20539;-86
2021/04/28 12:07:17;;;;;;;6.80;2.67;;;;;;;;;;5078810;28;20047;-86
2021/04/28 12:09:47;;;;;;;5.55;2.33;;;;;;;;;;5075293;28;20048;-81
2021/04/28 12:12:29;;;;;;;8.15;2.90;;;;;;;;;;5075125;28;20077;-84
2021/04/28 12:15:05;;;;;;;6.72;2.78;;;;;;;;;;5075701;28;20479;-86
2021/04/28 12:17:32;;;;;;;6.22;2.10;;;;;;;;;;5075373;28;20035;-86
2021/04/28 12:19:59;;;;;;;7.95;2.88;;;;;;;;;;5076411;28;20029;-87
2021/04/28 12:22:26;;;;;;;5.75;2.97;;;;;;;;;;5076871;28;20048;-86
2021/04/28 12:24:53;;;;;;;7.78;4.28;;;;;;;;;;5076910;28;20107;-83
2021/04/28 12:27:23;;;;;;;10.82;3.90;;;;;;;;;;5074986;28;20112;-80
2021/04/28 12:29:50;;;;;;;10.50;4.03;;;;;;;;;;5074708;28;20060;-85
2021/04/28 12:32:17;;;;;;;9.05;3.28;;;;;;;;;;5075258;28;20070;-82
2021/04/28 12:34:45;;;;;;;7.10;3.22;;;;;;;;;;5075035;28;20035;-86
2021/04/28 12:37:13;;;;;;;6.85;2.80;;;;;;;;;;5076110;28;20029;-87
2021/04/28 12:39:40;;;;;;;8.98;3.50;;;;;;;;;;5075490;28;20028;-86
2021/04/28 12:42:06;;;;;;;7.10;2.75;;;;;;;;;;5075743;28;20074;-86
2021/04/28 12:44:35;;;;;;;5.85;2.45;;;;;;;;;;5075047;28;20054;-86
2021/04/28 12:47:02;;;;;;;6.78;3.38;;;;;;;;;;5079670;28;20377;-85
2021/04/28 12:49:28;;;;;;;9.50;3.95;;;;;;;;;;5075968;28;20032;-86
2021/04/28 12:51:57;;;;;;;7.45;3.10;;;;;;;;;;5074480;28;20157;-83
2021/04/28 12:54:34;;;;;;;5.47;2.90;;;;;;;;;;5074934;28;20453;-86
2021/04/28 12:57:03;;;;;;;7.18;2.78;;;;;;;;;;5074241;28;20059;-84
2021/04/28 12:59:30;;;;;;;6.40;3.38;;;;;;;;;;5074459;28;20048;-86
2021/04/28 13:01:56;;;;;;;7.05;3.50;;;;;;;;;;5074352;28;20397;-81
2021/04/28 13:04:22;;;;;;;5.97;3.38;;;;;;;;;;5074779;28;20016;-84
2021/04/28 13:06:50;;;;;;;7.65;3.03;;;;;;;;;;5075332;28;20120;-83
2021/04/28 13:09:16;;;;;;;7.60;3.83;;;;;;;;;;5074058;28;20039;-83
2021/04/28 13:11:44;;;;;;;5.35;2.95;;;;;;;;;;5073941;28;20032;-82
2021/04/28 13:14:16;;;;;;;7.55;2.25;;;;;;;;;;5073846;28;20034;-86
2021/04/28 13:16:45;;;;;;;12.30;3.27;;;;;;;;;;5074059;28;20427;-82
2021/04/28 13:19:29;;;;;;;6.53;3.85;;;;;;;;;;5074135;28;20271;-84
2021/04/28 13:21:56;;;;;;;12.10;3.60;;;;;;;;;;5075271;28;20020;-86
2021/04/28 13:24:23;;;;;;;7.60;3.45;;;;;;;;;;5072803;28;20028;-81
2021/04/28 13:27:09;;;;;;;12.70;3.70;;;;;;;;;;5073208;28;20029;-82
2021/04/28 13:29:51;;;;;;;8.05;3.42;;;;;;;;;;5074204;28;20473;-84
2021/04/28 13:32:36;;;;;;;6.32;3.13;;;;;;;;;;5072495;28;20035;-84
2021/04/28 13:35:22;;;;;;;6.85;3.30;;;;;;;;;;5089400;28;20476;-84
2021/04/28 13:37:57;;;;;;;8.82;2.90;;;;;;;;;;5073101;28;20047;-84
2021/04/28 13:40:24;;;;;;;6.45;3.17;;;;;;;;;;5074554;28;20020;-83
2021/04/28 13:43:11;;;;;;;8.40;3.55;;;;;;;;;;5073249;28;20389;-83
2021/04/28 13:45:37;;;;;;;8.73;3.35;;;;;;;;;;5073304;28;20047;-84
2021/04/28 13:48:04;;;;;;;6.70;3.70;;;;;;;;;;5073404;28;20025;-80
2021/04/28 13:50:30;;;;;;;11.57;4.18;;;;;;;;;;5073218;28;20052;-82
2021/04/28 13:52:57;;;;;;;8.15;3.22;;;;;;;;;;5072875;28;20039;-86
2021/04/28 13:55:23;;;;;;;8.45;3.22;;;;;;;;;;5072945;28;20051;-83
2021/04/28 13:57:49;;;;;;;5.53;3.35;;;;;;;;;;5072832;28;20030;-80
2021/04/28 14:00:17;;;;;;;6.65;2.92;;;;;;;;;;5074024;28;20359;-80
2021/04/28 14:02:44;;;;;;;6.78;2.90;;;;;;;;;;5074100;28;20024;-82
2021/04/28 14:05:10;;;;;;;4.88;2.63;;;;;;;;;;5072962;28;20456;-84
2021/04/28 14:07:37;;;;;;;6.85;2.85;;;;;;;;;;5072706;28;20039;-81
2021/04/28 14:10:07;;;;;;;8.18;2.70;;;;;;;;;;5072946;28;20020;-81
2021/04/28 14:12:33;;;;;;;5.88;2.47;;;;;;;;;;5080297;28;20021;-81
2021/04/28 14:14:59;;;;;;;5.28;2.58;;;;;;;;;;5076823;28;20031;-85
2021/04/28 14:17:25;;;;;;;6.95;2.75;;;;;;;;;;5074551;28;20158;-83
2021/04/28 14:19:51;;;;;;;6.78;3.53;;;;;;;;;;5072612;28;20031;-79
2021/04/28 14:22:18;;;;;;;6.43;3.15;;;;;;;;;;5072763;28;20028;-88
2021/04/28 14:24:44;;;;;;;5.80;2.88;;;;;;;;;;5072807;28;20029;-83
2021/04/28 14:27:10;;;;;;;5.53;2.90;;;;;;;;;;5072848;28;20040;-87
2021/04/28 14:29:36;;;;;;;6.70;3.08;;;;;;;;;;5074322;28;20036;-80
2021/04/28 14:32:02;;;;;;;7.70;3.28;;;;;;;;;;5073650;28;20025;-82
2021/04/28 14:34:28;;;;;;;8.82;2.97;;;;;;;;;;5072740;28;20082;-85
2021/04/28 14:36:54;;;;;;;5.97;2.63;;;;;;;;;;5072530;28;20548;-83
2021/04/28 14:39:20;;;;;;;6.75;2.40;;;;;;;;;;5072463;28;20432;-82
2021/04/28 14:41:47;;;;;;;6.43;2.90;;;;;;;;;;5073753;28;20028;-85